DAL4547 KOKC-KSAN
Flight info
| Callsign | DAL4547 |
|---|---|
| Flight time | N/A |
| Altitude | 36000 |
| Route | OLGUY3 YOUSE PNH IMMAS DRYHT PXR HOGGZ LUCKI1 |
| Aircraft | A20N/M-SDE2E3FGHIRWXY/LB1 |
Departure
| Time | N/A |
|---|---|
| Airport | OKC Will Rogers World Airport (KOKC) |
Arrival
| Time | 2026-04-24 21:08 |
|---|---|
| Airport | San Diego International Airport (KSAN) |
| Time | Latitude | Longitude | Altitude | Speed | Heading |
|---|---|---|---|---|---|
| 2026-04-24 18:54 | 35.22349 | -101.79796 | 35953 ft | 375 kts | 263° |
| 2026-04-24 18:55 | 35.21258 | -101.89280 | 35918 ft | 375 kts | 263° |
| 2026-04-24 18:56 | 35.20521 | -101.95598 | 35896 ft | 375 kts | 263° |
| 2026-04-24 18:56 | 35.19780 | -102.01904 | 35867 ft | 374 kts | 263° |
| 2026-04-24 18:57 | 35.19037 | -102.08197 | 35849 ft | 374 kts | 263° |
| 2026-04-24 18:57 | 35.18292 | -102.14485 | 35820 ft | 373 kts | 263° |
| 2026-04-24 18:58 | 35.17550 | -102.20712 | 35822 ft | 373 kts | 263° |
| 2026-04-24 18:58 | 35.16800 | -102.26982 | 35820 ft | 372 kts | 263° |
| 2026-04-24 18:59 | 35.16048 | -102.33241 | 35819 ft | 372 kts | 263° |
| 2026-04-24 18:59 | 35.15293 | -102.39499 | 35849 ft | 372 kts | 263° |
| 2026-04-24 19:00 | 35.14535 | -102.45750 | 35847 ft | 372 kts | 263° |
| 2026-04-24 19:00 | 35.13774 | -102.52000 | 35842 ft | 372 kts | 263° |
| 2026-04-24 19:01 | 35.13009 | -102.58253 | 35837 ft | 372 kts | 263° |
| 2026-04-24 19:01 | 35.12241 | -102.64506 | 35831 ft | 372 kts | 263° |
| 2026-04-24 19:02 | 35.11475 | -102.70718 | 35830 ft | 372 kts | 263° |
| 2026-04-24 19:02 | 35.10699 | -102.76974 | 35836 ft | 373 kts | 263° |
| 2026-04-24 19:03 | 35.09920 | -102.83231 | 35841 ft | 372 kts | 263° |
| 2026-04-24 19:03 | 35.09138 | -102.89487 | 35845 ft | 372 kts | 263° |
| 2026-04-24 19:04 | 35.08354 | -102.95735 | 35844 ft | 372 kts | 263° |
| 2026-04-24 19:04 | 35.07566 | -103.01986 | 35841 ft | 373 kts | 263° |
| 2026-04-24 19:05 | 35.06779 | -103.08202 | 35834 ft | 373 kts | 263° |
| 2026-04-24 19:05 | 35.05985 | -103.14452 | 35827 ft | 372 kts | 263° |
| 2026-04-24 19:06 | 35.05187 | -103.20697 | 35825 ft | 372 kts | 263° |
| 2026-04-24 19:06 | 35.04387 | -103.26936 | 35823 ft | 372 kts | 263° |
| 2026-04-24 19:07 | 35.03586 | -103.33161 | 35822 ft | 371 kts | 263° |
| 2026-04-24 19:07 | 35.02917 | -103.38339 | 35806 ft | 371 kts | 263° |
| 2026-04-24 19:08 | 35.01979 | -103.45562 | 35806 ft | 371 kts | 263° |
| 2026-04-24 19:08 | 35.01169 | -103.51778 | 35784 ft | 370 kts | 263° |
| 2026-04-24 19:09 | 35.00357 | -103.57982 | 35785 ft | 370 kts | 263° |
| 2026-04-24 19:09 | 34.99548 | -103.64140 | 35770 ft | 370 kts | 263° |
| 2026-04-24 19:10 | 34.98730 | -103.70342 | 35768 ft | 371 kts | 263° |
| 2026-04-24 19:10 | 34.97906 | -103.76565 | 35774 ft | 371 kts | 263° |
| 2026-04-24 19:11 | 34.97081 | -103.82774 | 35761 ft | 371 kts | 263° |
| 2026-04-24 19:11 | 34.96258 | -103.88936 | 35761 ft | 370 kts | 263° |
| 2026-04-24 19:12 | 34.95427 | -103.95133 | 35757 ft | 370 kts | 263° |
| 2026-04-24 19:12 | 34.94593 | -104.01324 | 35754 ft | 370 kts | 263° |
| 2026-04-24 19:13 | 34.93894 | -104.06503 | 35747 ft | 370 kts | 263° |
| 2026-04-24 19:13 | 34.92919 | -104.13694 | 35738 ft | 370 kts | 263° |
| 2026-04-24 19:14 | 34.92076 | -104.19878 | 35745 ft | 370 kts | 263° |
| 2026-04-24 19:14 | 34.91233 | -104.26050 | 35765 ft | 368 kts | 263° |
| 2026-04-24 19:15 | 34.90391 | -104.32204 | 35798 ft | 368 kts | 263° |
| 2026-04-24 19:15 | 34.89680 | -104.38354 | 35839 ft | 368 kts | 264° |
| 2026-04-24 19:16 | 34.88670 | -104.47648 | 35893 ft | 369 kts | 264° |
| 2026-04-24 19:16 | 34.87977 | -104.53842 | 35927 ft | 369 kts | 264° |
| 2026-04-24 19:17 | 34.87276 | -104.60040 | 35933 ft | 369 kts | 264° |
| 2026-04-24 19:17 | 34.86575 | -104.66193 | 35935 ft | 369 kts | 264° |
| 2026-04-24 19:18 | 34.85866 | -104.72392 | 35937 ft | 369 kts | 264° |
| 2026-04-24 19:18 | 34.85154 | -104.78581 | 35902 ft | 369 kts | 264° |
| 2026-04-24 19:19 | 34.84440 | -104.84763 | 35869 ft | 369 kts | 264° |
| 2026-04-24 19:19 | 34.83724 | -104.90935 | 35837 ft | 368 kts | 264° |
| 2026-04-24 19:20 | 34.83007 | -104.97096 | 35831 ft | 367 kts | 264° |
| 2026-04-24 19:20 | 34.82285 | -105.03259 | 35793 ft | 367 kts | 264° |
| 2026-04-24 19:21 | 34.81567 | -105.09366 | 35812 ft | 367 kts | 263° |
| 2026-04-24 19:21 | 34.80842 | -105.15505 | 35808 ft | 366 kts | 263° |
| 2026-04-24 19:22 | 34.80114 | -105.21642 | 35834 ft | 366 kts | 263° |
| 2026-04-24 19:22 | 34.79383 | -105.27776 | 35832 ft | 366 kts | 263° |
| 2026-04-24 19:23 | 34.78652 | -105.33893 | 35822 ft | 365 kts | 263° |
| 2026-04-24 19:23 | 34.77916 | -105.40009 | 35847 ft | 365 kts | 263° |
| 2026-04-24 19:24 | 34.77178 | -105.46128 | 35849 ft | 365 kts | 263° |
| 2026-04-24 19:24 | 34.76436 | -105.52247 | 35866 ft | 366 kts | 263° |
| 2026-04-24 19:25 | 34.75696 | -105.58325 | 35867 ft | 366 kts | 263° |
| 2026-04-24 19:25 | 34.74948 | -105.64442 | 35876 ft | 366 kts | 263° |
| 2026-04-24 19:26 | 34.74195 | -105.70576 | 35884 ft | 366 kts | 263° |
| 2026-04-24 19:26 | 34.73438 | -105.76715 | 35895 ft | 367 kts | 263° |
| 2026-04-24 19:27 | 34.72679 | -105.82844 | 35897 ft | 367 kts | 263° |
| 2026-04-24 19:27 | 34.71917 | -105.88975 | 35887 ft | 367 kts | 263° |
| 2026-04-24 19:28 | 34.71157 | -105.95059 | 35889 ft | 366 kts | 263° |
| 2026-04-24 19:28 | 34.70400 | -106.01043 | 35875 ft | 344 kts | 263° |
| 2026-04-24 19:29 | 34.69698 | -106.06546 | 35890 ft | 315 kts | 263° |
| 2026-04-24 19:29 | 34.69371 | -106.09118 | 35880 ft | 301 kts | 263° |
| 2026-04-24 19:29 | 34.69060 | -106.11571 | 35880 ft | 287 kts | 263° |
| 2026-04-24 19:30 | 34.68764 | -106.13904 | 35888 ft | 272 kts | 263° |
| 2026-04-24 19:30 | 34.68488 | -106.16134 | 35449 ft | 268 kts | 264° |
| 2026-04-24 19:30 | 34.68328 | -106.18594 | 32500 ft | 325 kts | 271° |
| 2026-04-24 19:30 | 34.68513 | -106.21612 | 30565 ft | 367 kts | 275° |
| 2026-04-24 19:31 | 34.68730 | -106.24476 | 31925 ft | 316 kts | 270° |
| 2026-04-24 19:31 | 34.68440 | -106.27050 | 32590 ft | 309 kts | 256° |
| 2026-04-24 19:31 | 34.67671 | -106.29479 | 32984 ft | 303 kts | 253° |
| 2026-04-24 19:31 | 34.66932 | -106.31839 | 33381 ft | 296 kts | 256° |
| 2026-04-24 19:32 | 34.66362 | -106.34190 | 33783 ft | 292 kts | 259° |
| 2026-04-24 19:32 | 34.65926 | -106.36580 | 34122 ft | 288 kts | 262° |
| 2026-04-24 19:32 | 34.65573 | -106.38959 | 34424 ft | 286 kts | 263° |
| 2026-04-24 19:32 | 34.65257 | -106.41347 | 34601 ft | 287 kts | 263° |
| 2026-04-24 19:33 | 34.64952 | -106.43753 | 34755 ft | 289 kts | 263° |
| 2026-04-24 19:33 | 34.64644 | -106.46173 | 34942 ft | 291 kts | 263° |
| 2026-04-24 19:33 | 34.64332 | -106.48613 | 35142 ft | 293 kts | 263° |
| 2026-04-24 19:33 | 34.64016 | -106.51063 | 35322 ft | 294 kts | 263° |
| 2026-04-24 19:34 | 34.63697 | -106.53526 | 35493 ft | 296 kts | 263° |
| 2026-04-24 19:34 | 34.63374 | -106.56005 | 35663 ft | 298 kts | 263° |
| 2026-04-24 19:34 | 34.63049 | -106.58499 | 35837 ft | 299 kts | 263° |
| 2026-04-24 19:35 | 34.62387 | -106.63564 | 35847 ft | 312 kts | 263° |
| 2026-04-24 19:35 | 34.61690 | -106.68882 | 35846 ft | 325 kts | 263° |
| 2026-04-24 19:36 | 34.60962 | -106.74417 | 35847 ft | 338 kts | 263° |
| 2026-04-24 19:36 | 34.60201 | -106.80173 | 35832 ft | 352 kts | 263° |
| 2026-04-24 19:37 | 34.59412 | -106.86118 | 35831 ft | 365 kts | 262° |
| 2026-04-24 19:37 | 34.58595 | -106.92239 | 35823 ft | 367 kts | 262° |
| 2026-04-24 19:38 | 34.57776 | -106.98354 | 35825 ft | 367 kts | 262° |
| 2026-04-24 19:38 | 34.57296 | -107.01930 | 35823 ft | 367 kts | 262° |
| 2026-04-24 19:39 | 34.56341 | -107.09023 | 35824 ft | 365 kts | 262° |
| 2026-04-24 19:39 | 34.55518 | -107.15106 | 35822 ft | 366 kts | 262° |
| 2026-04-24 19:40 | 34.54692 | -107.21189 | 35831 ft | 366 kts | 262° |
| 2026-04-24 19:40 | 34.54002 | -107.26253 | 35829 ft | 366 kts | 262° |
| 2026-04-24 19:41 | 34.53169 | -107.32354 | 35830 ft | 367 kts | 262° |
| 2026-04-24 19:41 | 34.52333 | -107.38447 | 35834 ft | 365 kts | 262° |
| 2026-04-24 19:42 | 34.51493 | -107.44547 | 35836 ft | 368 kts | 262° |
| 2026-04-24 19:42 | 34.50648 | -107.50657 | 35843 ft | 367 kts | 262° |
| 2026-04-24 19:43 | 34.49805 | -107.56734 | 35851 ft | 367 kts | 262° |
| 2026-04-24 19:43 | 34.48957 | -107.62820 | 35833 ft | 364 kts | 262° |
| 2026-04-24 19:44 | 34.48115 | -107.68842 | 35849 ft | 367 kts | 262° |
| 2026-04-24 19:44 | 34.47256 | -107.74971 | 35837 ft | 369 kts | 262° |
| 2026-04-24 19:45 | 34.46395 | -107.81077 | 35846 ft | 367 kts | 262° |
| 2026-04-24 19:45 | 34.45532 | -107.87182 | 35852 ft | 367 kts | 262° |
| 2026-04-24 19:46 | 34.44671 | -107.93248 | 35851 ft | 367 kts | 262° |
| 2026-04-24 19:46 | 34.43802 | -107.99351 | 35851 ft | 367 kts | 262° |
| 2026-04-24 19:47 | 34.42932 | -108.05449 | 35842 ft | 367 kts | 262° |
| 2026-04-24 19:47 | 34.42059 | -108.11535 | 35840 ft | 366 kts | 261° |
| 2026-04-24 19:48 | 34.40827 | -108.17532 | 35836 ft | 367 kts | 256° |
| 2026-04-24 19:48 | 34.38688 | -108.26408 | 35832 ft | 367 kts | 257° |
| 2026-04-24 19:49 | 34.35854 | -108.38249 | 35831 ft | 367 kts | 257° |
| 2026-04-24 19:50 | 34.32987 | -108.50133 | 35831 ft | 368 kts | 256° |
| 2026-04-24 19:51 | 34.30825 | -108.59055 | 35799 ft | 368 kts | 256° |
| 2026-04-24 19:52 | 34.28654 | -108.67981 | 35817 ft | 369 kts | 256° |
| 2026-04-24 19:52 | 34.27199 | -108.73953 | 35818 ft | 370 kts | 256° |
| 2026-04-24 19:53 | 34.25736 | -108.79935 | 35814 ft | 371 kts | 256° |
| 2026-04-24 19:54 | 34.23531 | -108.88930 | 35814 ft | 372 kts | 256° |
| 2026-04-24 19:54 | 34.22067 | -108.94883 | 35859 ft | 372 kts | 256° |
| 2026-04-24 19:55 | 34.20831 | -108.99901 | 35897 ft | 371 kts | 256° |
| 2026-04-24 19:55 | 34.19113 | -109.06858 | 35953 ft | 372 kts | 256° |
| 2026-04-24 19:56 | 34.17632 | -109.12839 | 35991 ft | 372 kts | 256° |
| 2026-04-24 19:56 | 34.16150 | -109.18812 | 36039 ft | 371 kts | 256° |
| 2026-04-24 19:57 | 34.14664 | -109.24785 | 36051 ft | 371 kts | 256° |
| 2026-04-24 19:57 | 34.13177 | -109.30751 | 36049 ft | 371 kts | 256° |
| 2026-04-24 19:58 | 34.11686 | -109.36717 | 36048 ft | 371 kts | 256° |
| 2026-04-24 19:58 | 34.10193 | -109.42677 | 36041 ft | 371 kts | 256° |
| 2026-04-24 19:59 | 34.08707 | -109.48597 | 35993 ft | 371 kts | 256° |
| 2026-04-24 19:59 | 34.07201 | -109.54586 | 35981 ft | 374 kts | 256° |
| 2026-04-24 20:00 | 34.05687 | -109.60588 | 35938 ft | 374 kts | 256° |
| 2026-04-24 20:00 | 34.04171 | -109.66586 | 35917 ft | 374 kts | 256° |
| 2026-04-24 20:01 | 34.02651 | -109.72583 | 35904 ft | 373 kts | 256° |
| 2026-04-24 20:01 | 34.01130 | -109.78578 | 35918 ft | 374 kts | 256° |
| 2026-04-24 20:02 | 33.99858 | -109.83576 | 35928 ft | 375 kts | 255° |
| 2026-04-24 20:02 | 33.98085 | -109.90528 | 35928 ft | 373 kts | 255° |
| 2026-04-24 20:03 | 33.96555 | -109.96517 | 35923 ft | 375 kts | 255° |
| 2026-04-24 20:03 | 33.95021 | -110.02501 | 35913 ft | 373 kts | 255° |
| 2026-04-24 20:04 | 33.93487 | -110.08478 | 35900 ft | 373 kts | 255° |
| 2026-04-24 20:04 | 33.91948 | -110.14458 | 35871 ft | 374 kts | 255° |
| 2026-04-24 20:05 | 33.90416 | -110.20396 | 35881 ft | 374 kts | 255° |
| 2026-04-24 20:05 | 33.88871 | -110.26375 | 35884 ft | 374 kts | 255° |
| 2026-04-24 20:06 | 33.87320 | -110.32360 | 35886 ft | 374 kts | 255° |
| 2026-04-24 20:06 | 33.85767 | -110.38341 | 35886 ft | 375 kts | 255° |
| 2026-04-24 20:07 | 33.84472 | -110.43321 | 35881 ft | 375 kts | 255° |
| 2026-04-24 20:07 | 33.82647 | -110.50316 | 35874 ft | 373 kts | 255° |
| 2026-04-24 20:08 | 33.81095 | -110.56260 | 35872 ft | 372 kts | 255° |
| 2026-04-24 20:08 | 33.79548 | -110.62170 | 35784 ft | 373 kts | 255° |
| 2026-04-24 20:08 | 33.78768 | -110.65144 | 35579 ft | 373 kts | 255° |
| 2026-04-24 20:09 | 33.77984 | -110.68125 | 35337 ft | 373 kts | 255° |
| 2026-04-24 20:09 | 33.77198 | -110.71117 | 35082 ft | 375 kts | 255° |
| 2026-04-24 20:09 | 33.76410 | -110.74110 | 34842 ft | 377 kts | 255° |
| 2026-04-24 20:09 | 33.75618 | -110.77111 | 34608 ft | 376 kts | 255° |
| 2026-04-24 20:10 | 33.74827 | -110.80110 | 34371 ft | 376 kts | 255° |
| 2026-04-24 20:10 | 33.74037 | -110.83101 | 34121 ft | 376 kts | 255° |
| 2026-04-24 20:10 | 33.73245 | -110.86094 | 33891 ft | 377 kts | 255° |
| 2026-04-24 20:10 | 33.72448 | -110.89105 | 33625 ft | 380 kts | 254° |
| 2026-04-24 20:11 | 33.71646 | -110.92134 | 33366 ft | 381 kts | 255° |
| 2026-04-24 20:11 | 33.70842 | -110.95166 | 33092 ft | 381 kts | 255° |
| 2026-04-24 20:11 | 33.70037 | -110.98197 | 32837 ft | 382 kts | 255° |
| 2026-04-24 20:11 | 33.69227 | -111.01245 | 32577 ft | 384 kts | 254° |
| 2026-04-24 20:12 | 33.68413 | -111.04304 | 32322 ft | 385 kts | 254° |
| 2026-04-24 20:12 | 33.67595 | -111.07372 | 32061 ft | 387 kts | 254° |
| 2026-04-24 20:12 | 33.66773 | -111.10453 | 31808 ft | 388 kts | 254° |
| 2026-04-24 20:12 | 33.65945 | -111.13554 | 31554 ft | 390 kts | 254° |
| 2026-04-24 20:13 | 33.65131 | -111.16602 | 31290 ft | 388 kts | 254° |
| 2026-04-24 20:13 | 33.64301 | -111.19701 | 31057 ft | 392 kts | 254° |
| 2026-04-24 20:13 | 33.63465 | -111.22819 | 30810 ft | 392 kts | 254° |
| 2026-04-24 20:13 | 33.62630 | -111.25930 | 30563 ft | 391 kts | 254° |
| 2026-04-24 20:14 | 33.61795 | -111.29040 | 30322 ft | 392 kts | 254° |
| 2026-04-24 20:14 | 33.60956 | -111.32164 | 30086 ft | 394 kts | 254° |
| 2026-04-24 20:14 | 33.60116 | -111.35282 | 29832 ft | 394 kts | 254° |
| 2026-04-24 20:14 | 33.59270 | -111.38419 | 29535 ft | 392 kts | 254° |
| 2026-04-24 20:15 | 33.58437 | -111.41505 | 29257 ft | 385 kts | 254° |
| 2026-04-24 20:15 | 33.57614 | -111.44558 | 28989 ft | 385 kts | 254° |
| 2026-04-24 20:15 | 33.56799 | -111.47573 | 28718 ft | 385 kts | 254° |
| 2026-04-24 20:15 | 33.55974 | -111.50621 | 28447 ft | 383 kts | 254° |
| 2026-04-24 20:16 | 33.55151 | -111.53651 | 28187 ft | 382 kts | 254° |
| 2026-04-24 20:16 | 33.54329 | -111.56677 | 27958 ft | 380 kts | 254° |
| 2026-04-24 20:16 | 33.53511 | -111.59691 | 27891 ft | 380 kts | 254° |
| 2026-04-24 20:16 | 33.52693 | -111.62700 | 27894 ft | 380 kts | 254° |
| 2026-04-24 20:17 | 33.51870 | -111.65727 | 27897 ft | 381 kts | 254° |
| 2026-04-24 20:17 | 33.50226 | -111.71760 | 27897 ft | 381 kts | 254° |
| 2026-04-24 20:17 | 33.49402 | -111.74776 | 27897 ft | 380 kts | 254° |
| 2026-04-24 20:18 | 33.48858 | -111.76769 | 27900 ft | 380 kts | 254° |
| 2026-04-24 20:18 | 33.47754 | -111.80804 | 27886 ft | 381 kts | 253° |
| 2026-04-24 20:18 | 33.46927 | -111.83826 | 27898 ft | 382 kts | 253° |
| 2026-04-24 20:18 | 33.46109 | -111.86812 | 27894 ft | 382 kts | 253° |
| 2026-04-24 20:19 | 33.45282 | -111.89829 | 27878 ft | 381 kts | 253° |
| 2026-04-24 20:19 | 33.44453 | -111.92853 | 27880 ft | 381 kts | 253° |
| 2026-04-24 20:19 | 33.43624 | -111.95872 | 27878 ft | 382 kts | 253° |
| 2026-04-24 20:19 | 33.42727 | -111.98868 | 27878 ft | 382 kts | 251° |
| 2026-04-24 20:20 | 33.41803 | -112.01856 | 27877 ft | 382 kts | 252° |
| 2026-04-24 20:20 | 33.40903 | -112.04843 | 27878 ft | 382 kts | 252° |
| 2026-04-24 20:20 | 33.40005 | -112.07835 | 27879 ft | 382 kts | 252° |
| 2026-04-24 20:20 | 33.39104 | -112.10824 | 27878 ft | 382 kts | 252° |
| 2026-04-24 20:21 | 33.38197 | -112.13818 | 27872 ft | 382 kts | 252° |
| 2026-04-24 20:21 | 33.37291 | -112.16800 | 27871 ft | 382 kts | 252° |
| 2026-04-24 20:21 | 33.36380 | -112.19787 | 27883 ft | 382 kts | 252° |
| 2026-04-24 20:21 | 33.35470 | -112.22768 | 27890 ft | 382 kts | 252° |
| 2026-04-24 20:22 | 33.34558 | -112.25750 | 27890 ft | 382 kts | 252° |
| 2026-04-24 20:22 | 33.33646 | -112.28733 | 27892 ft | 382 kts | 252° |
| 2026-04-24 20:22 | 33.32746 | -112.31672 | 27894 ft | 381 kts | 252° |
| 2026-04-24 20:22 | 33.31834 | -112.34647 | 27892 ft | 381 kts | 252° |
| 2026-04-24 20:23 | 33.30919 | -112.37630 | 27891 ft | 382 kts | 252° |
| 2026-04-24 20:23 | 33.30003 | -112.40611 | 27890 ft | 382 kts | 252° |
| 2026-04-24 20:23 | 33.29088 | -112.43586 | 27887 ft | 382 kts | 252° |
| 2026-04-24 20:23 | 33.28170 | -112.46571 | 27875 ft | 382 kts | 252° |
| 2026-04-24 20:24 | 33.27550 | -112.48584 | 27882 ft | 382 kts | 252° |
| 2026-04-24 20:24 | 33.26334 | -112.52526 | 27868 ft | 382 kts | 252° |
| 2026-04-24 20:24 | 33.25416 | -112.55502 | 27869 ft | 382 kts | 252° |
| 2026-04-24 20:24 | 33.24495 | -112.58482 | 27873 ft | 382 kts | 252° |
| 2026-04-24 20:25 | 33.23574 | -112.61461 | 27873 ft | 382 kts | 252° |
| 2026-04-24 20:25 | 33.22653 | -112.64436 | 27871 ft | 382 kts | 252° |
| 2026-04-24 20:25 | 33.21731 | -112.67410 | 27870 ft | 382 kts | 252° |
| 2026-04-24 20:25 | 33.20809 | -112.70383 | 27872 ft | 382 kts | 252° |
| 2026-04-24 20:26 | 33.19886 | -112.73356 | 27866 ft | 382 kts | 252° |
| 2026-04-24 20:26 | 33.18964 | -112.76324 | 27863 ft | 382 kts | 252° |
| 2026-04-24 20:26 | 33.18050 | -112.79262 | 27868 ft | 382 kts | 251° |
| 2026-04-24 20:26 | 33.17127 | -112.82230 | 27867 ft | 381 kts | 251° |
| 2026-04-24 20:27 | 33.16203 | -112.85192 | 27858 ft | 380 kts | 251° |
| 2026-04-24 20:27 | 33.15277 | -112.88158 | 27866 ft | 380 kts | 251° |
| 2026-04-24 20:27 | 33.14352 | -112.91117 | 27855 ft | 381 kts | 251° |
| 2026-04-24 20:27 | 33.13425 | -112.94082 | 27853 ft | 382 kts | 251° |
| 2026-04-24 20:28 | 33.12494 | -112.97060 | 27854 ft | 382 kts | 251° |
| 2026-04-24 20:28 | 33.11879 | -112.99021 | 27846 ft | 380 kts | 252° |
| 2026-04-24 20:28 | 33.10958 | -113.01983 | 27849 ft | 381 kts | 251° |
| 2026-04-24 20:28 | 33.10029 | -113.04945 | 27852 ft | 382 kts | 251° |
| 2026-04-24 20:29 | 33.09095 | -113.07913 | 27853 ft | 382 kts | 251° |
| 2026-04-24 20:29 | 33.08159 | -113.10884 | 27849 ft | 382 kts | 251° |
| 2026-04-24 20:29 | 33.07225 | -113.13848 | 27856 ft | 381 kts | 251° |
| 2026-04-24 20:29 | 33.06294 | -113.16806 | 27856 ft | 382 kts | 251° |
| 2026-04-24 20:30 | 33.05361 | -113.19771 | 27854 ft | 382 kts | 251° |
| 2026-04-24 20:30 | 33.04425 | -113.22733 | 27856 ft | 382 kts | 251° |
| 2026-04-24 20:30 | 33.03501 | -113.25656 | 27856 ft | 381 kts | 251° |
| 2026-04-24 20:30 | 33.02565 | -113.28617 | 27857 ft | 382 kts | 251° |
| 2026-04-24 20:31 | 33.01627 | -113.31580 | 27856 ft | 382 kts | 251° |
| 2026-04-24 20:31 | 33.00687 | -113.34547 | 27854 ft | 382 kts | 251° |
| 2026-04-24 20:31 | 32.99747 | -113.37512 | 27853 ft | 382 kts | 251° |
| 2026-04-24 20:31 | 32.98808 | -113.40473 | 27854 ft | 382 kts | 251° |
| 2026-04-24 20:32 | 32.97869 | -113.43426 | 27850 ft | 382 kts | 251° |
| 2026-04-24 20:32 | 32.96928 | -113.46387 | 27854 ft | 382 kts | 251° |
| 2026-04-24 20:32 | 32.95987 | -113.49344 | 27854 ft | 382 kts | 251° |
| 2026-04-24 20:32 | 32.95058 | -113.52262 | 27855 ft | 382 kts | 251° |
| 2026-04-24 20:33 | 32.94114 | -113.55221 | 27853 ft | 382 kts | 251° |
| 2026-04-24 20:33 | 32.93150 | -113.58241 | 27853 ft | 382 kts | 251° |
| 2026-04-24 20:33 | 32.92224 | -113.61141 | 27832 ft | 382 kts | 251° |
| 2026-04-24 20:33 | 32.91278 | -113.64100 | 27853 ft | 382 kts | 251° |
| 2026-04-24 20:34 | 32.90329 | -113.67063 | 27856 ft | 382 kts | 251° |
| 2026-04-24 20:34 | 32.89382 | -113.70021 | 27854 ft | 382 kts | 251° |
| 2026-04-24 20:34 | 32.88434 | -113.72977 | 27854 ft | 382 kts | 251° |
| 2026-04-24 20:34 | 32.87486 | -113.75930 | 27854 ft | 382 kts | 251° |
| 2026-04-24 20:35 | 32.86550 | -113.78845 | 27852 ft | 382 kts | 251° |
| 2026-04-24 20:35 | 32.85601 | -113.81794 | 27856 ft | 382 kts | 251° |
| 2026-04-24 20:35 | 32.84652 | -113.84744 | 27855 ft | 382 kts | 251° |
| 2026-04-24 20:35 | 32.83702 | -113.87691 | 27856 ft | 382 kts | 251° |
| 2026-04-24 20:36 | 32.82751 | -113.90639 | 27857 ft | 382 kts | 251° |
| 2026-04-24 20:36 | 32.81797 | -113.93594 | 27855 ft | 382 kts | 251° |
| 2026-04-24 20:36 | 32.80846 | -113.96538 | 27857 ft | 382 kts | 251° |
| 2026-04-24 20:36 | 32.79893 | -113.99484 | 27856 ft | 382 kts | 251° |
| 2026-04-24 20:37 | 32.78940 | -114.02430 | 27858 ft | 382 kts | 250° |
| 2026-04-24 20:37 | 32.77988 | -114.05373 | 27857 ft | 382 kts | 250° |
| 2026-04-24 20:37 | 32.77035 | -114.08316 | 27854 ft | 381 kts | 250° |
| 2026-04-24 20:37 | 32.76084 | -114.11252 | 27854 ft | 382 kts | 250° |
| 2026-04-24 20:38 | 32.75128 | -114.14200 | 27856 ft | 382 kts | 250° |
| 2026-04-24 20:38 | 32.74174 | -114.17144 | 27858 ft | 381 kts | 250° |
| 2026-04-24 20:38 | 32.73220 | -114.20081 | 27859 ft | 381 kts | 250° |
| 2026-04-24 20:38 | 32.72263 | -114.23024 | 27856 ft | 382 kts | 250° |
| 2026-04-24 20:39 | 32.71307 | -114.25966 | 27863 ft | 381 kts | 250° |
| 2026-04-24 20:39 | 32.70351 | -114.28901 | 27855 ft | 381 kts | 250° |
| 2026-04-24 20:39 | 32.69395 | -114.31836 | 27859 ft | 381 kts | 250° |
| 2026-04-24 20:39 | 32.68453 | -114.34724 | 27860 ft | 379 kts | 250° |
| 2026-04-24 20:40 | 32.67497 | -114.37654 | 27859 ft | 382 kts | 250° |
| 2026-04-24 20:40 | 32.67043 | -114.39048 | 27856 ft | 382 kts | 250° |
| 2026-04-24 20:41 | 32.66977 | -114.39250 | 27856 ft | 381 kts | 251° |
| 2026-04-24 20:41 | 32.66086 | -114.42187 | 27857 ft | 378 kts | 253° |
| 2026-04-24 20:41 | 32.65509 | -114.45239 | 27859 ft | 381 kts | 264° |
| 2026-04-24 20:42 | 32.65570 | -114.48387 | 27861 ft | 383 kts | 276° |
| 2026-04-24 20:42 | 32.66068 | -114.51498 | 27860 ft | 384 kts | 279° |
| 2026-04-24 20:42 | 32.66632 | -114.54550 | 27861 ft | 384 kts | 279° |
| 2026-04-24 20:42 | 32.67232 | -114.57648 | 27857 ft | 384 kts | 280° |
| 2026-04-24 20:43 | 32.67837 | -114.60745 | 27860 ft | 384 kts | 279° |
| 2026-04-24 20:43 | 32.68440 | -114.63841 | 27861 ft | 384 kts | 279° |
| 2026-04-24 20:43 | 32.69041 | -114.66946 | 27863 ft | 384 kts | 279° |
| 2026-04-24 20:43 | 32.69635 | -114.70037 | 27857 ft | 384 kts | 279° |
| 2026-04-24 20:44 | 32.70230 | -114.73137 | 27865 ft | 384 kts | 279° |
| 2026-04-24 20:44 | 32.70814 | -114.76194 | 27858 ft | 384 kts | 279° |
| 2026-04-24 20:44 | 32.71407 | -114.79296 | 27860 ft | 384 kts | 279° |
| 2026-04-24 20:44 | 32.71999 | -114.82402 | 27857 ft | 384 kts | 279° |
| 2026-04-24 20:45 | 32.72590 | -114.85503 | 27859 ft | 384 kts | 279° |
| 2026-04-24 20:45 | 32.73171 | -114.88560 | 27860 ft | 384 kts | 279° |
| 2026-04-24 20:45 | 32.73761 | -114.91661 | 27859 ft | 384 kts | 279° |
| 2026-04-24 20:45 | 32.74349 | -114.94761 | 27851 ft | 384 kts | 279° |
| 2026-04-24 20:46 | 32.74935 | -114.97858 | 27602 ft | 384 kts | 279° |
| 2026-04-24 20:46 | 32.75522 | -115.00963 | 26864 ft | 388 kts | 279° |
| 2026-04-24 20:46 | 32.76118 | -115.04127 | 25718 ft | 398 kts | 279° |
| 2026-04-24 20:46 | 32.76725 | -115.07350 | 24848 ft | 400 kts | 279° |
| 2026-04-24 20:47 | 32.77328 | -115.10545 | 24372 ft | 391 kts | 279° |
| 2026-04-24 20:47 | 32.77914 | -115.13643 | 24104 ft | 377 kts | 279° |
| 2026-04-24 20:47 | 32.78477 | -115.16624 | 23950 ft | 362 kts | 279° |
| 2026-04-24 20:47 | 32.79022 | -115.19528 | 23878 ft | 362 kts | 279° |
| 2026-04-24 20:48 | 32.79563 | -115.22436 | 23871 ft | 366 kts | 279° |
| 2026-04-24 20:48 | 32.80114 | -115.25389 | 23869 ft | 365 kts | 279° |
| 2026-04-24 20:48 | 32.80664 | -115.28341 | 23869 ft | 365 kts | 279° |
| 2026-04-24 20:48 | 32.81214 | -115.31290 | 23850 ft | 365 kts | 279° |
| 2026-04-24 20:49 | 32.81763 | -115.34235 | 23855 ft | 363 kts | 279° |
| 2026-04-24 20:49 | 32.82308 | -115.37163 | 23851 ft | 363 kts | 279° |
| 2026-04-24 20:49 | 32.82852 | -115.40094 | 23850 ft | 363 kts | 279° |
| 2026-04-24 20:49 | 32.83396 | -115.43026 | 23853 ft | 363 kts | 279° |
| 2026-04-24 20:50 | 32.83864 | -115.45973 | 23849 ft | 362 kts | 275° |
| 2026-04-24 20:50 | 32.84032 | -115.48950 | 23721 ft | 360 kts | 268° |
| 2026-04-24 20:50 | 32.83884 | -115.51916 | 23497 ft | 358 kts | 262° |
| 2026-04-24 20:50 | 32.83450 | -115.54825 | 23244 ft | 357 kts | 258° |
| 2026-04-24 20:51 | 32.82967 | -115.57712 | 22973 ft | 355 kts | 259° |
| 2026-04-24 20:51 | 32.82496 | -115.60593 | 22707 ft | 354 kts | 259° |
| 2026-04-24 20:51 | 32.82034 | -115.63435 | 22456 ft | 353 kts | 259° |
| 2026-04-24 20:51 | 32.81563 | -115.66319 | 22193 ft | 352 kts | 259° |
| 2026-04-24 20:52 | 32.81095 | -115.69178 | 21935 ft | 352 kts | 259° |
| 2026-04-24 20:52 | 32.80633 | -115.71994 | 21681 ft | 350 kts | 259° |
| 2026-04-24 20:52 | 32.80165 | -115.74836 | 21426 ft | 349 kts | 259° |
| 2026-04-24 20:52 | 32.79698 | -115.77669 | 21183 ft | 348 kts | 259° |
| 2026-04-24 20:53 | 32.79231 | -115.80496 | 20936 ft | 347 kts | 259° |
| 2026-04-24 20:53 | 32.78771 | -115.83278 | 20689 ft | 346 kts | 259° |
| 2026-04-24 20:53 | 32.78408 | -115.86100 | 20446 ft | 345 kts | 264° |
| 2026-04-24 20:53 | 32.78208 | -115.88927 | 20209 ft | 338 kts | 264° |
| 2026-04-24 20:54 | 32.78009 | -115.91673 | 19967 ft | 327 kts | 264° |
| 2026-04-24 20:54 | 32.77813 | -115.94328 | 19654 ft | 319 kts | 264° |
| 2026-04-24 20:54 | 32.77618 | -115.96927 | 19301 ft | 313 kts | 264° |
| 2026-04-24 20:54 | 32.77424 | -115.99510 | 18956 ft | 315 kts | 264° |
| 2026-04-24 20:55 | 32.77228 | -116.02106 | 18620 ft | 314 kts | 264° |
| 2026-04-24 20:55 | 32.77033 | -116.04679 | 18282 ft | 311 kts | 264° |
| 2026-04-24 20:55 | 32.76842 | -116.07204 | 17910 ft | 311 kts | 263° |
| 2026-04-24 20:55 | 32.76648 | -116.09766 | 17519 ft | 311 kts | 263° |
| 2026-04-24 20:56 | 32.76453 | -116.12327 | 17131 ft | 309 kts | 263° |
| 2026-04-24 20:56 | 32.76259 | -116.14878 | 16767 ft | 309 kts | 263° |
| 2026-04-24 20:56 | 32.76065 | -116.17418 | 16389 ft | 309 kts | 263° |
| 2026-04-24 20:56 | 32.75869 | -116.19963 | 16004 ft | 309 kts | 264° |
| 2026-04-24 20:57 | 32.75676 | -116.22469 | 15624 ft | 308 kts | 264° |
| 2026-04-24 20:57 | 32.75480 | -116.24984 | 15218 ft | 303 kts | 264° |
| 2026-04-24 20:57 | 32.75287 | -116.27487 | 14677 ft | 305 kts | 264° |
| 2026-04-24 20:57 | 32.75092 | -116.30011 | 14182 ft | 306 kts | 264° |
| 2026-04-24 20:58 | 32.74897 | -116.32536 | 13621 ft | 307 kts | 264° |
| 2026-04-24 20:58 | 32.74700 | -116.35072 | 12980 ft | 309 kts | 264° |
| 2026-04-24 20:58 | 32.74502 | -116.37629 | 12351 ft | 312 kts | 264° |
| 2026-04-24 20:58 | 32.74302 | -116.40203 | 11746 ft | 314 kts | 264° |
| 2026-04-24 20:59 | 32.74101 | -116.42791 | 11231 ft | 312 kts | 264° |
| 2026-04-24 20:59 | 32.73904 | -116.45318 | 11022 ft | 301 kts | 264° |
| 2026-04-24 20:59 | 32.73716 | -116.47713 | 10943 ft | 292 kts | 264° |
| 2026-04-24 20:59 | 32.73527 | -116.50112 | 10934 ft | 293 kts | 264° |
| 2026-04-24 21:00 | 32.73316 | -116.52546 | 10958 ft | 299 kts | 263° |
| 2026-04-24 21:00 | 32.73080 | -116.54958 | 10946 ft | 287 kts | 263° |
| 2026-04-24 21:00 | 32.72850 | -116.57241 | 10946 ft | 270 kts | 263° |
| 2026-04-24 21:00 | 32.72630 | -116.59453 | 10758 ft | 273 kts | 262° |
| 2026-04-24 21:01 | 32.72405 | -116.61718 | 10433 ft | 276 kts | 262° |
| 2026-04-24 21:01 | 32.72184 | -116.63984 | 10090 ft | 275 kts | 262° |
| 2026-04-24 21:01 | 32.71965 | -116.66232 | 9713 ft | 274 kts | 263° |
| 2026-04-24 21:01 | 32.71770 | -116.68513 | 9036 ft | 282 kts | 264° |
| 2026-04-24 21:02 | 32.71586 | -116.70900 | 8086 ft | 298 kts | 265° |
| 2026-04-24 21:02 | 32.71398 | -116.73390 | 7451 ft | 304 kts | 264° |
| 2026-04-24 21:02 | 32.71211 | -116.75845 | 7121 ft | 298 kts | 264° |
| 2026-04-24 21:02 | 32.71025 | -116.78243 | 6975 ft | 285 kts | 264° |
| 2026-04-24 21:03 | 32.70842 | -116.80543 | 6849 ft | 273 kts | 263° |
| 2026-04-24 21:03 | 32.70463 | -116.82726 | 6537 ft | 269 kts | 253° |
| 2026-04-24 21:03 | 32.69818 | -116.84848 | 5902 ft | 278 kts | 250° |
| 2026-04-24 21:03 | 32.69118 | -116.87053 | 5071 ft | 293 kts | 250° |
| 2026-04-24 21:04 | 32.68420 | -116.89279 | 4962 ft | 278 kts | 251° |
| 2026-04-24 21:04 | 32.67830 | -116.91403 | 4854 ft | 266 kts | 256° |
| 2026-04-24 21:04 | 32.67562 | -116.93625 | 4538 ft | 274 kts | 270° |
| 2026-04-24 21:04 | 32.67716 | -116.95852 | 3881 ft | 271 kts | 278° |
| 2026-04-24 21:05 | 32.68019 | -116.98027 | 3113 ft | 263 kts | 280° |
| 2026-04-24 21:05 | 32.68422 | -117.00085 | 2680 ft | 243 kts | 282° |
| 2026-04-24 21:05 | 32.68846 | -117.01912 | 2368 ft | 220 kts | 285° |
| 2026-04-24 21:05 | 32.69339 | -117.03579 | 1988 ft | 211 kts | 288° |
| 2026-04-24 21:06 | 32.69899 | -117.05280 | 1580 ft | 228 kts | 288° |
| 2026-04-24 21:06 | 32.70458 | -117.07121 | 1459 ft | 229 kts | 288° |
| 2026-04-24 21:06 | 32.70957 | -117.08805 | 1293 ft | 198 kts | 285° |
| 2026-04-24 21:06 | 32.71271 | -117.10179 | 1169 ft | 156 kts | 285° |
| 2026-04-24 21:07 | 32.71574 | -117.11336 | 809 ft | 139 kts | 283° |
| 2026-04-24 21:07 | 32.71830 | -117.12410 | 979 ft | 138 kts | 284° |
| 2026-04-24 21:07 | 32.72107 | -117.13480 | 1107 ft | 125 kts | 281° |
| 2026-04-24 21:07 | 32.72320 | -117.14510 | 691 ft | 131 kts | 282° |
| 2026-04-24 21:08 | 32.72545 | -117.15500 | 711 ft | 119 kts | 282° |
| 2026-04-24 21:08 | 32.72752 | -117.16446 | 397 ft | 120 kts | 281° |
| 2026-04-24 21:08 | 32.72979 | -117.17406 | 89 ft | 120 kts | 280° |
| 2026-04-24 21:08 | 32.73146 | -117.18164 | 27 ft | 47 kts | 285° |
| 2026-04-24 21:09 | 32.73182 | -117.18302 | 28 ft | 15 kts | 287° |
| 2026-04-24 21:09 | 32.73191 | -117.18333 | 28 ft | 15 kts | 290° |
| 2026-04-24 21:09 | 32.73257 | -117.18557 | 31 ft | 38 kts | 285° |
| 2026-04-24 21:09 | 32.73299 | -117.18787 | 26 ft | 3 kts | 263° |
| 2026-04-24 21:10 | 32.73288 | -117.18826 | 27 ft | 10 kts | 244° |
| 2026-04-24 21:10 | 32.73255 | -117.18859 | 30 ft | 0 kts | 214° |
| 2026-04-24 21:10 | 32.73245 | -117.18877 | 26 ft | 15 kts | 239° |
| 2026-04-24 21:10 | 32.73255 | -117.18990 | 28 ft | 14 kts | 287° |
| 2026-04-24 21:11 | 32.73288 | -117.19117 | 28 ft | 18 kts | 287° |
| 2026-04-24 21:11 | 32.73322 | -117.19264 | 25 ft | 15 kts | 292° |
| 2026-04-24 21:11 | 32.73307 | -117.19346 | 24 ft | 9 kts | 271° |
| 2026-04-24 21:11 | 32.73289 | -117.19491 | 29 ft | 16 kts | 267° |
| 2026-04-24 21:12 | 32.73288 | -117.19554 | 28 ft | 6 kts | 271° |
| 2026-04-24 21:12 | 32.73289 | -117.19563 | 28 ft | 0 kts | 278° |